Impacts TAF Board INFO
FOR SITUATIONAL AWARENESS. NOT TO BE USED FOR FLIGHT PLANNING PURPOSES.
IDs:

KPDX - Portland Intl Arpt, OR, US

Issued at 1725 UTC 21 Jul 2017
Updated at 2034 UTC 21 Jul 2017
Potential Impact None Slight Moderate High
Time1953Z 21/21Z 21/22Z 21/23Z 22/00Z 22/01Z 22/02Z 22/03Z 22/04Z 22/05Z 22/06Z 22/07Z 22/08Z 22/09Z>>
Type OBS PRVL PRVL PRVL PRVL PRVL PRVL PRVL PRVL PRVL PRVL PRVL PRVL PRVL
VIS 10 >6 >6 >6 >6 >6 >6 >6 >6 >6 >6 >6 >6 >6
CIG -- -- -- -- -- -- -- -- -- -- -- -- -- --
Cover FEW SKC SKC SKC SKC SKC SKC SKC SKC SKC SKC SKC SKC SCT
FltCat VFR VFR VFR VFR VFR VFR VFR VFR VFR VFR VFR VFR VFR VFR
WX -- -- -- -- -- -- -- -- -- -- -- -- -- --
WDir VRB 290 290 290 290 320 320 320 320 320 320 320 320 VRB
WSpd 5 7 7 7 7 6 6 6 6 6 6 6 6 3
WGst -- -- -- -- -- -- -- -- -- -- -- -- -- --

Raw TAF
KPDX 211725Z 2118/2218 VRB03KT P6SM SKC
  FM212100 29007KT P6SM SKC
  FM220100 32006KT P6SM SKC
  FM220900 VRB03KT P6SM SCT200
  FM221600 35003KT P6SM BKN050


Raw METAR
KPDX 211953Z VRB05KT 10SM FEW040 FEW250 23/12 A3014 RMK AO2 SLP204 T02330117
KPDX 211853Z VRB05KT 10SM FEW040 FEW250 23/12 A3015 RMK AO2 SLP208 T02280117
KPDX 211753Z VRB04KT 10SM FEW040 FEW250 21/12 A3016 RMK AO2 SLP212 T02110122 10211 20139 58001

METAR Board
Radar Display
Forecast Discussion

FOR SITUATIONAL AWARENESS. NOT TO BE USED FOR FLIGHT PLANNING PURPOSES.